Terminal Aerodrome Forecast
Issued by NWS El Paso, TX

Home | Current Version | Previous Version | Text Only | Print | Product List | Glossary On
Versions: 1 2 3 4 5 6 7 8 9 10 11 12 13 14
000
FTUS44 KEPZ 271720
TAFELP
TAF
KELP 271720Z 2718/2818 14005KT P6SM FEW060 SCT120
     FM272200 16008KT P6SM VCTS SCT060CB BKN120
      TEMPO 2800/2804 1SM TSRA BKN040CB
     FM280400 12006KT P6SM SCT060 BKN100=

USA.gov is the U.S. government's official web portal to all federal, state and local government web resources and services.